Port Renfrew, Canada
Current Conditions -  °F | °C
As of 8:53 PM on Saturday 25 Oct 2014 (Local Time) from KUIL Reporting Station
Broken Clouds Broken Clouds  
Wind Chill: 53°   Ceiling: 12000
Heat Index: 53°   Visibility: 7mi
Dew Point: 46°   Wind: 14mph
Humidity: 77%   Direction: 280°W
Pressure: 29.58"   Gusts: 24mph
Location:  48.55°N, 124.42°W
Report Text: KUIL 260353Z AUTO 28012G21KT 7SM SCT033 SCT043 BKN120 12/08 A2958 RMK AO2 PRESRR SLP018 T01170078
Loading
Personal Weather Stations






























Interactive Weather Map
Tropical Storm Tracking
New forecast layout! Learn more

10-Day Weather Forecast

Advertisements
Track Severe Weather on mobile